Terminal Aerodrome Forecast
Issued by NWS

Home | Current Version | Previous Version | Text Only | Print | Product List | Glossary On
Versions: 1 2 3 4 5 6 7 8 9 10 11 12 13 14
193
FTUS44 KTSA 111120
TAFXNA
TAF
KXNA 111120Z 1112/1212 18014KT P6SM OVC025
      TEMPO 1114/1118 BKN015
     FM112000 20013G22KT P6SM OVC015
     FM120200 30012KT P6SM OVC015
     FM120500 33008KT P6SM BKN250=

USA.gov is the U.S. government's official web portal to all federal, state and local government web resources and services.